Time;durP1;ratioP1;P1;durP2;ratioP2;P2;SDS_P1;SDS_P2;PMS_P1;PMS_P2;Temp;Humidity;BMP_temperature;BMP_pressure;BME280_temperature;BME280_humidity;BME280_pressure;Samples;Min_cycle;Max_cycle;Signal;HPM_P1;HPM_P2
2021/08/07 00:02:03;;;;;;;1.27;1.02;;;14.30;99.90;;;;;;5051467;28;19921;-66
2021/08/07 00:04:29;;;;;;;;;;;14.30;99.90;;;;;;5055352;28;20032;-66
2021/08/07 00:06:54;;;;;;;4.25;1.25;;;14.30;99.90;;;;;;5053028;28;19932;-66
2021/08/07 00:09:19;;;;;;;;;;;14.30;99.90;;;;;;5053875;28;20078;-66
2021/08/07 00:11:45;;;;;;;3.60;1.10;;;14.20;99.90;;;;;;5066860;28;19920;-66
2021/08/07 00:14:11;;;;;;;;;;;14.20;99.90;;;;;;5067641;28;20044;-66
2021/08/07 00:16:36;;;;;;;5.63;1.17;;;14.20;99.90;;;;;;5066801;28;19966;-66
2021/08/07 00:19:04;;;;;;;;;;;14.10;99.90;;;;;;5067439;28;20089;-66
2021/08/07 00:21:29;;;;;;;3.35;1.15;;;14.20;99.90;;;;;;5068482;28;20006;-66
2021/08/07 00:23:55;;;;;;;;;;;14.20;99.90;;;;;;5068324;28;20127;-66
2021/08/07 00:26:20;;;;;;;5.22;1.20;;;14.20;99.90;;;;;;5066914;28;19974;-66
2021/08/07 00:28:46;;;;;;;;;;;14.20;99.90;;;;;;5068209;28;20415;-67
2021/08/07 00:31:12;;;;;;;4.75;1.38;;;14.20;99.90;;;;;;5067303;28;19983;-67
2021/08/07 00:33:38;;;;;;;5.30;1.20;;;14.30;99.90;;;;;;5068295;28;20046;-66
2021/08/07 00:36:03;;;;;;;;;;;14.30;99.90;;;;;;5067863;28;20127;-66
2021/08/07 00:38:29;;;;;;;4.38;0.93;;;14.20;99.90;;;;;;5066634;28;20265;-66
2021/08/07 00:40:54;;;;;;;;;;;14.20;99.90;;;;;;5067618;28;20040;-66
2021/08/07 00:43:20;;;;;;;5.65;1.20;;;14.20;99.90;;;;;;5066252;28;19916;-66
2021/08/07 00:45:45;;;;;;;;;;;14.20;99.90;;;;;;5066580;28;20119;-66
2021/08/07 00:48:11;;;;;;;5.82;1.00;;;14.10;99.90;;;;;;5066012;28;19925;-66
2021/08/07 00:50:37;;;;;;;;;;;14.10;99.90;;;;;;5049155;28;20086;-66
2021/08/07 00:53:04;;;;;;;1.73;1.20;;;14.10;99.90;;;;;;5066562;28;19926;-66
2021/08/07 00:55:30;;;;;;;3.58;1.40;;;14.00;99.90;;;;;;5066090;28;20042;-66
2021/08/07 00:57:55;;;;;;;1.45;1.13;;;14.10;99.90;;;;;;5066356;28;20654;-66
2021/08/07 01:00:21;;;;;;;;;;;14.10;99.90;;;;;;5065927;28;20152;-66
2021/08/07 01:02:56;;;;;;;8.82;3.20;;;14.10;99.90;;;;;;5066512;28;19999;-66
2021/08/07 01:05:26;;;;;;;8.25;3.88;;;14.10;99.90;;;;;;5066919;28;20395;-66
2021/08/07 01:08:24;;;;;;;13.32;4.07;;;14.10;99.90;;;;;;5065930;28;20136;-66
2021/08/07 01:11:12;;;;;;;3.97;1.42;;;14.10;99.90;;;;;;5032874;28;20051;-66
2021/08/07 01:13:53;;;;;;;5.05;1.23;;;14.10;99.90;;;;;;5066332;28;20373;-66
2021/08/07 01:16:31;;;;;;;3.97;1.15;;;14.10;99.90;;;;;;5065675;28;20033;-66
2021/08/07 01:18:59;;;;;;;5.00;1.17;;;14.10;99.90;;;;;;5065828;28;20038;-66
2021/08/07 01:21:37;;;;;;;3.53;1.00;;;14.10;99.90;;;;;;5065480;28;20045;-66
2021/08/07 01:24:08;;;;;;;4.55;1.20;;;14.10;99.90;;;;;;5066161;28;20408;-66
2021/08/07 01:27:15;;;;;;;4.43;1.48;;;14.10;99.90;;;;;;5066028;28;20041;-65
2021/08/07 01:29:41;;;;;;;2.90;1.33;;;14.10;99.90;;;;;;5066787;28;20090;-66
2021/08/07 01:32:06;;;;;;;;;;;14.10;99.90;;;;;;5064442;28;20405;-66
2021/08/07 01:34:33;;;;;;;2.22;1.08;;;14.00;99.90;;;;;;5066006;28;19920;-66
2021/08/07 01:36:59;;;;;;;3.25;1.13;;;14.00;99.90;;;;;;5065877;28;20048;-66
2021/08/07 01:39:25;;;;;;;3.22;0.75;;;14.00;99.90;;;;;;5066039;28;20484;-66
2021/08/07 01:41:50;;;;;;;;;;;13.90;99.90;;;;;;5066213;28;20056;-66
2021/08/07 01:44:16;;;;;;;2.78;1.00;;;13.90;99.90;;;;;;5065649;28;19916;-66
2021/08/07 01:46:47;;;;;;;;;;;13.90;99.90;;;;;;5065507;28;20041;-66
2021/08/07 01:49:15;;;;;;;2.90;1.00;;;13.90;99.90;;;;;;5065716;28;19920;-66
2021/08/07 01:51:48;;;;;;;4.60;1.80;;;13.90;99.90;;;;;;5066469;28;20404;-66
2021/08/07 01:54:19;;;;;;;3.47;1.08;;;13.80;99.90;;;;;;5065901;28;20067;-66
2021/08/07 01:56:45;;;;;;;1.83;1.02;;;13.80;99.90;;;;;;5060996;28;20056;-66
2021/08/07 01:59:17;;;;;;;6.25;1.30;;;13.80;99.90;;;;;;5065556;28;20082;-66
2021/08/07 02:01:47;;;;;;;6.07;1.00;;;13.90;99.90;;;;;;5064622;28;20051;-66
2021/08/07 02:04:15;;;;;;;6.18;1.00;;;13.80;99.90;;;;;;5065946;28;20055;-66
2021/08/07 02:06:42;;;;;;;4.32;1.02;;;13.80;99.90;;;;;;5064716;28;20664;-66
2021/08/07 02:09:09;;;;;;;2.05;1.10;;;13.80;99.90;;;;;;5065181;28;20210;-66
2021/08/07 02:11:35;;;;;;;3.67;0.90;;;13.80;99.90;;;;;;5065257;28;20548;-66
2021/08/07 02:14:02;;;;;;;2.53;0.88;;;13.80;99.90;;;;;;5065640;28;20126;-66
2021/08/07 02:16:29;;;;;;;4.35;1.45;;;13.80;99.90;;;;;;5064860;28;20041;-66
2021/08/07 02:18:55;;;;;;;2.00;0.98;;;13.70;99.90;;;;;;5065205;28;20140;-66
2021/08/07 02:21:20;;;;;;;;;;;13.70;99.90;;;;;;5066279;28;20040;-66
2021/08/07 02:23:48;;;;;;;5.18;1.30;;;13.70;99.90;;;;;;5065735;28;19921;-65
2021/08/07 02:26:15;;;;;;;2.85;1.15;;;13.70;99.90;;;;;;5064416;28;20072;-66
2021/08/07 02:28:41;;;;;;;2.28;1.33;;;13.60;99.90;;;;;;5065132;28;20060;-66
2021/08/07 02:31:08;;;;;;;;;;;13.60;99.90;;;;;;5065645;28;20135;-65
2021/08/07 02:33:35;;;;;;;2.33;0.90;;;13.70;99.90;;;;;;5065382;28;19981;-66
2021/08/07 02:36:03;;;;;;;3.70;1.20;;;13.60;99.90;;;;;;5064616;28;20086;-66
2021/08/07 02:38:30;;;;;;;2.78;1.23;;;13.60;99.90;;;;;;5064417;28;20048;-65
2021/08/07 02:41:01;;;;;;;3.10;1.15;;;13.60;99.90;;;;;;5065401;28;20507;-66
2021/08/07 02:43:27;;;;;;;3.03;1.20;;;13.50;99.90;;;;;;5064695;28;20044;-65
2021/08/07 02:45:53;;;;;;;;;;;13.50;99.90;;;;;;5064707;28;20044;-68
2021/08/07 02:48:20;;;;;;;8.00;1.10;;;13.50;99.90;;;;;;5064876;28;19924;-65
2021/08/07 02:50:45;;;;;;;2.47;1.00;;;13.60;99.90;;;;;;5047318;28;20097;-68
2021/08/07 02:53:11;;;;;;;;;;;13.60;99.90;;;;;;5065667;28;20037;-68
2021/08/07 02:55:38;;;;;;;1.92;1.20;;;13.60;99.90;;;;;;5064341;28;19916;-68
2021/08/07 02:58:04;;;;;;;2.60;1.30;;;13.60;99.90;;;;;;5064589;28;20048;-68
2021/08/07 03:00:30;;;;;;;;;;;13.50;99.90;;;;;;5065235;28;20036;-68
2021/08/07 03:02:56;;;;;;;4.57;1.25;;;13.50;99.90;;;;;;5065036;28;19916;-68
2021/08/07 03:05:22;;;;;;;;;;;13.50;99.90;;;;;;5064791;28;20040;-68
2021/08/07 03:07:48;;;;;;;3.80;1.23;;;13.50;99.90;;;;;;5046666;28;20272;-68
2021/08/07 03:10:13;;;;;;;;;;;13.50;99.90;;;;;;5065880;28;20124;-68
2021/08/07 03:12:39;;;;;;;6.28;1.35;;;13.60;99.90;;;;;;5064446;28;19912;-68
2021/08/07 03:15:05;;;;;;;;;;;13.50;99.90;;;;;;5065687;28;20037;-68
2021/08/07 03:17:31;;;;;;;2.50;1.10;;;13.50;99.90;;;;;;5064503;28;20344;-68
2021/08/07 03:19:56;;;;;;;;;;;13.50;99.90;;;;;;5065400;28;20035;-68
2021/08/07 03:22:22;;;;;;;4.43;1.13;;;13.40;99.90;;;;;;5064908;28;19920;-68
2021/08/07 03:24:47;;;;;;;;;;;13.40;99.90;;;;;;5064947;28;20152;-68
2021/08/07 03:27:13;;;;;;;5.15;1.15;;;13.50;99.90;;;;;;5064196;28;19924;-68
2021/08/07 03:29:38;;;;;;;;;;;13.50;99.90;;;;;;5065691;28;20044;-68
2021/08/07 03:32:05;;;;;;;1.75;1.08;;;13.40;99.90;;;;;;5064574;28;19921;-68
2021/08/07 03:34:30;;;;;;;4.93;1.13;;;13.40;99.90;;;;;;5064787;28;20135;-68
2021/08/07 03:36:56;;;;;;;;;;;13.40;99.90;;;;;;5065144;28;20132;-68
2021/08/07 03:39:22;;;;;;;6.25;1.45;;;13.50;99.90;;;;;;5065061;28;19916;-68
2021/08/07 03:41:48;;;;;;;5.60;1.55;;;13.50;99.90;;;;;;5063181;28;20044;-68
2021/08/07 03:44:15;;;;;;;7.38;1.30;;;13.50;99.90;;;;;;5066256;28;20044;-68
2021/08/07 03:46:41;;;;;;;5.68;1.50;;;13.50;99.90;;;;;;5068186;28;20407;-68
2021/08/07 03:49:06;;;;;;;;;;;13.50;99.90;;;;;;5069277;28;20697;-68
2021/08/07 03:51:32;;;;;;;9.40;1.17;;;13.50;99.90;;;;;;5068724;28;19916;-68
2021/08/07 03:53:57;;;;;;;;;;;13.50;99.90;;;;;;5069684;28;20032;-68
2021/08/07 03:56:23;;;;;;;5.32;2.60;;;13.40;99.90;;;;;;5060150;28;19923;-68
2021/08/07 03:58:49;;;;;;;;;;;13.40;99.90;;;;;;5067470;28;20044;-68
2021/08/07 04:01:15;;;;;;;5.60;2.90;;;13.50;99.90;;;;;;5066951;28;19916;-68
2021/08/07 04:03:40;;;;;;;;;;;13.50;99.90;;;;;;5069009;28;20044;-68
2021/08/07 04:06:06;;;;;;;6.03;1.58;;;13.50;99.90;;;;;;5068523;28;19920;-68
2021/08/07 04:08:31;;;;;;;;;;;13.50;99.90;;;;;;5068943;28;20127;-68
2021/08/07 04:10:57;;;;;;;6.55;3.10;;;13.60;99.90;;;;;;5067736;28;19920;-69
2021/08/07 04:13:22;;;;;;;;;;;13.60;99.90;;;;;;5068234;28;20108;-70
2021/08/07 04:15:48;;;;;;;15.35;6.72;;;13.60;99.90;;;;;;5067550;28;19965;-69
2021/08/07 04:18:14;;;;;;;;;;;13.50;99.90;;;;;;5067970;28;20408;-67
2021/08/07 04:20:39;;;;;;;4.88;2.08;;;13.60;99.90;;;;;;5068727;28;19916;-68
2021/08/07 04:23:08;;;;;;;;;;;13.60;99.90;;;;;;5069181;28;20601;-72
2021/08/07 04:25:34;;;;;;;3.40;1.77;;;13.70;99.90;;;;;;5068435;28;19923;-69
2021/08/07 04:28:00;;;;;;;4.13;1.13;;;13.70;99.90;;;;;;5058141;28;20474;-69
2021/08/07 04:30:27;;;;;;;;;;;13.70;99.90;;;;;;5068059;28;20123;-69
2021/08/07 04:32:53;;;;;;;8.00;4.32;;;13.80;99.90;;;;;;5068475;28;19961;-68
2021/08/07 04:35:18;;;;;;;;;;;13.90;99.90;;;;;;5068689;28;20135;-68
2021/08/07 04:37:55;;;;;;;7.13;2.20;;;14.00;99.90;;;;;;5068731;28;19957;-69
2021/08/07 04:40:22;;;;;;;5.07;2.75;;;14.00;99.90;;;;;;5067175;28;20055;-69
2021/08/07 04:42:48;;;;;;;10.00;1.85;;;14.10;99.90;;;;;;5068080;28;20037;-69
2021/08/07 04:45:14;;;;;;;;;;;14.10;99.90;;;;;;5067819;28;20039;-65
2021/08/07 04:47:54;;;;;;;1.80;0.90;;;14.10;99.90;;;;;;5067091;28;20190;-67
2021/08/07 04:50:22;;;;;;;31.17;15.23;;;14.10;99.90;;;;;;5068783;28;20864;-67
2021/08/07 04:52:47;;;;;;;5.15;2.60;;;14.10;99.90;;;;;;5050895;28;20040;-68
2021/08/07 04:55:13;;;;;;;;;;;14.00;99.90;;;;;;5067152;28;20049;-68
2021/08/07 04:57:39;;;;;;;4.05;1.38;;;14.10;99.90;;;;;;5067743;28;19931;-68
2021/08/07 05:00:04;;;;;;;;;;;14.10;99.90;;;;;;5068234;28;20076;-68
2021/08/07 05:02:30;;;;;;;1.98;0.88;;;14.10;99.90;;;;;;5067458;28;19917;-68
2021/08/07 05:04:55;;;;;;;5.97;1.15;;;14.10;99.90;;;;;;5066946;28;20040;-68
2021/08/07 05:07:21;;;;;;;;;;;14.20;99.90;;;;;;5049067;28;20753;-68
2021/08/07 05:09:46;;;;;;;4.43;1.00;;;14.20;99.90;;;;;;5067984;28;19970;-68
2021/08/07 05:12:12;;;;;;;;;;;14.20;99.90;;;;;;5067762;28;20036;-68
2021/08/07 05:14:37;;;;;;;4.25;0.95;;;14.10;99.90;;;;;;5058979;28;19916;-68
2021/08/07 05:17:03;;;;;;;;;;;14.20;99.90;;;;;;5065551;28;20048;-68
2021/08/07 05:19:29;;;;;;;3.88;1.02;;;14.10;99.90;;;;;;5065918;28;19917;-68
2021/08/07 05:21:54;;;;;;;;;;;14.10;99.90;;;;;;5048637;28;20144;-69
2021/08/07 05:24:20;;;;;;;7.80;1.42;;;14.10;99.90;;;;;;5065845;28;19924;-68
2021/08/07 05:26:45;;;;;;;;;;;14.20;99.90;;;;;;5065607;28;20515;-68
2021/08/07 05:29:11;;;;;;;5.85;2.60;;;14.30;99.90;;;;;;5066604;28;19924;-68
2021/08/07 05:31:36;;;;;;;;;;;14.40;99.90;;;;;;5068129;28;20047;-68
2021/08/07 05:34:02;;;;;;;16.05;8.60;;;14.40;99.90;;;;;;5065093;28;19920;-69
2021/08/07 05:36:27;;;;;;;;;;;14.40;99.90;;;;;;5048854;28;20760;-69
2021/08/07 05:38:53;;;;;;;4.53;1.90;;;14.50;99.90;;;;;;5068134;28;19917;-69
2021/08/07 05:41:18;;;;;;;;;;;14.50;99.90;;;;;;5070167;28;20385;-68
2021/08/07 05:43:44;;;;;;;1.58;1.10;;;14.50;99.90;;;;;;5050621;28;19962;-69
2021/08/07 05:46:09;;;;;;;;;;;14.50;99.90;;;;;;5066826;28;20447;-69
2021/08/07 05:48:35;;;;;;;5.65;2.30;;;14.50;99.90;;;;;;5067749;28;19931;-68
2021/08/07 05:51:01;;;;;;;;;;;14.50;99.90;;;;;;5050243;28;20055;-68
2021/08/07 05:53:26;;;;;;;10.02;3.50;;;14.60;99.90;;;;;;5066910;28;20087;-68
2021/08/07 05:55:53;;;;;;;;;;;14.60;99.90;;;;;;5067369;28;20048;-68
2021/08/07 05:58:18;;;;;;;5.35;1.58;;;14.60;99.90;;;;;;5066682;28;19920;-68
2021/08/07 06:00:44;;;;;;;4.15;1.58;;;14.70;99.90;;;;;;5053683;28;20336;-68
2021/08/07 06:03:09;;;;;;;;;;;14.60;99.90;;;;;;5067031;28;20032;-69
2021/08/07 06:05:35;;;;;;;6.93;1.55;;;14.70;99.90;;;;;;5066555;28;19920;-68
2021/08/07 06:08:00;;;;;;;;;;;14.70;99.90;;;;;;5066062;28;20408;-68
2021/08/07 06:10:26;;;;;;;3.53;1.20;;;14.70;99.90;;;;;;5048339;28;19959;-69
2021/08/07 06:12:51;;;;;;;;;;;14.70;99.90;;;;;;5066655;28;20158;-68
2021/08/07 06:15:17;;;;;;;7.75;1.63;;;14.70;99.90;;;;;;5065198;28;19920;-68
2021/08/07 06:17:43;;;;;;;;;;;14.70;99.90;;;;;;5066527;28;20040;-68
2021/08/07 06:20:10;;;;;;;3.45;1.40;;;14.70;99.90;;;;;;5066313;28;19927;-68
2021/08/07 06:22:35;;;;;;;4.40;1.02;;;14.80;99.90;;;;;;5065985;28;20044;-68
2021/08/07 06:25:01;;;;;;;;;;;14.80;99.90;;;;;;5066637;28;20051;-68
2021/08/07 06:27:27;;;;;;;2.17;1.10;;;14.90;99.90;;;;;;5065382;28;19970;-68
2021/08/07 06:29:53;;;;;;;;;;;14.80;99.90;;;;;;5066329;28;20322;-68
2021/08/07 06:32:18;;;;;;;3.05;0.85;;;14.90;99.90;;;;;;5065112;28;19972;-68
2021/08/07 06:34:44;;;;;;;;;;;14.90;99.90;;;;;;5066133;28;20044;-68
2021/08/07 06:37:10;;;;;;;2.72;1.20;;;15.00;99.90;;;;;;5066024;28;19952;-67
2021/08/07 06:39:35;;;;;;;5.75;1.10;;;15.10;99.90;;;;;;5065535;28;20120;-67
2021/08/07 06:42:01;;;;;;;;;;;15.00;99.90;;;;;;5065968;28;20505;-67
2021/08/07 06:44:27;;;;;;;3.10;1.02;;;15.00;99.90;;;;;;5065834;28;20435;-68
2021/08/07 06:46:52;;;;;;;6.85;1.95;;;15.10;99.90;;;;;;5065244;28;20078;-67
2021/08/07 06:49:18;;;;;;;;;;;15.20;99.90;;;;;;5066126;28;20063;-67
2021/08/07 06:51:43;;;;;;;4.55;1.13;;;15.30;99.90;;;;;;5064375;28;19955;-68
2021/08/07 06:54:09;;;;;;;;;;;15.30;99.90;;;;;;5066307;28;20052;-68
2021/08/07 06:56:35;;;;;;;2.60;0.90;;;15.30;99.90;;;;;;5065211;28;19948;-67
2021/08/07 06:59:00;;;;;;;3.28;1.13;;;15.30;99.90;;;;;;5064781;28;20068;-68
2021/08/07 07:01:26;;;;;;;;;;;15.30;99.90;;;;;;5065380;28;20126;-67
2021/08/07 07:03:52;;;;;;;6.95;2.28;;;15.40;99.90;;;;;;5065160;28;19917;-68
2021/08/07 07:06:17;;;;;;;;;;;15.40;99.90;;;;;;5065312;28;20044;-67
2021/08/07 07:08:43;;;;;;;2.33;1.08;;;15.40;99.90;;;;;;5064197;28;19931;-68
2021/08/07 07:11:08;;;;;;;;;;;15.60;99.90;;;;;;5065620;28;20519;-68
2021/08/07 07:13:34;;;;;;;7.00;1.73;;;15.70;99.90;;;;;;5066028;28;19916;-68
2021/08/07 07:15:59;;;;;;;;;;;15.70;99.90;;;;;;5065074;28;20028;-68
2021/08/07 07:18:25;;;;;;;5.13;1.45;;;15.80;99.90;;;;;;5076169;22;19920;-68
2021/08/07 07:20:50;;;;;;;;;;;15.90;99.90;;;;;;5038501;28;20041;-68
2021/08/07 07:23:16;;;;;;;4.28;2.17;;;16.00;99.90;;;;;;5006388;28;20389;-68
2021/08/07 07:25:41;;;;;;;;;;;16.00;99.90;;;;;;5005817;28;20033;-67
2021/08/07 07:28:07;;;;;;;7.55;3.83;;;16.00;99.90;;;;;;5033171;28;19925;-67
2021/08/07 07:30:32;;;;;;;;;;;16.00;99.90;;;;;;5034472;28;20037;-68
2021/08/07 07:32:58;;;;;;;3.55;1.83;;;16.00;99.90;;;;;;5025350;28;19960;-68
2021/08/07 07:35:24;;;;;;;;;;;15.90;99.90;;;;;;5025631;28;20045;-67
2021/08/07 07:37:49;;;;;;;5.00;1.58;;;16.00;99.90;;;;;;5025036;28;20016;-67
2021/08/07 07:40:15;;;;;;;;;;;15.90;99.90;;;;;;5022379;28;20045;-67
2021/08/07 07:42:40;;;;;;;2.15;1.00;;;15.90;99.90;;;;;;5011535;28;20015;-67
2021/08/07 07:45:07;;;;;;;;;;;15.80;99.90;;;;;;5023039;28;20041;-67
2021/08/07 07:47:32;;;;;;;18.05;1.63;;;15.80;99.90;;;;;;5023429;28;19917;-67
2021/08/07 07:49:58;;;;;;;;;;;15.80;99.90;;;;;;5025705;28;20053;-68
2021/08/07 07:52:23;;;;;;;4.63;1.27;;;15.90;99.90;;;;;;5018506;28;19932;-68
2021/08/07 07:54:49;;;;;;;;;;;15.90;99.90;;;;;;5002129;28;20499;-68
2021/08/07 07:57:14;;;;;;;8.85;2.45;;;15.80;99.90;;;;;;5017936;28;19928;-68
2021/08/07 07:59:40;;;;;;;;;;;15.80;99.90;;;;;;5025814;28;20091;-68
2021/08/07 08:02:06;;;;;;;5.18;2.72;;;15.90;99.90;;;;;;5024265;28;19920;-68
2021/08/07 08:04:32;;;;;;;;;;;15.90;99.90;;;;;;5022761;28;20049;-68
2021/08/07 08:07:00;;;;;;;6.55;1.40;;;16.00;99.90;;;;;;5016358;28;19921;-68
2021/08/07 08:09:27;;;;;;;5.13;1.15;;;16.10;99.90;;;;;;5025157;28;20690;-68
2021/08/07 08:11:52;;;;;;;2.47;0.90;;;16.60;99.90;;;;;;5024826;28;20124;-68
2021/08/07 08:14:18;;;;;;;;;;;17.40;99.90;;;;;;5023088;28;20171;-68
2021/08/07 08:16:45;;;;;;;2.25;0.90;;;18.80;99.90;;;;;;5022728;28;19917;-68
2021/08/07 08:19:12;;;;;;;7.82;0.88;;;19.50;99.90;;;;;;5024950;28;20122;-68
2021/08/07 08:21:38;;;;;;;1.90;0.77;;;20.30;99.90;;;;;;5024591;28;20052;-68
2021/08/07 08:24:04;;;;;;;4.47;1.25;;;20.20;99.90;;;;;;5024474;28;20041;-68
2021/08/07 08:26:30;;;;;;;2.22;0.88;;;20.10;99.30;;;;;;4995705;28;20038;-68
2021/08/07 08:28:55;;;;;;;2.70;1.00;;;19.70;99.90;;;;;;5008410;28;20046;-68
2021/08/07 08:31:21;;;;;;;2.45;1.00;;;19.90;99.70;;;;;;5006296;28;20033;-67
2021/08/07 08:33:47;;;;;;;4.43;1.27;;;19.70;99.70;;;;;;5008199;28;20480;-68
2021/08/07 08:36:13;;;;;;;5.85;2.03;;;19.80;99.90;;;;;;5007348;28;20041;-68
2021/08/07 08:38:38;;;;;;;5.05;1.50;;;20.60;98.10;;;;;;5008218;28;20080;-68
2021/08/07 08:41:04;;;;;;;5.05;1.20;;;21.00;95.90;;;;;;5008313;28;20509;-68
2021/08/07 08:43:29;;;;;;;3.65;0.77;;;21.20;95.80;;;;;;5008149;28;20048;-69
2021/08/07 08:45:55;;;;;;;3.03;0.88;;;21.30;95.00;;;;;;5007707;28;20034;-69
2021/08/07 08:48:21;;;;;;;6.07;1.27;;;20.80;94.60;;;;;;5008599;28;20133;-68
2021/08/07 08:50:49;;;;;;;3.65;1.23;;;21.00;95.20;;;;;;5010078;28;20092;-68
2021/08/07 08:53:15;;;;;;;3.67;1.20;;;20.30;96.40;;;;;;5010190;28;20042;-68
2021/08/07 08:55:41;;;;;;;6.32;1.35;;;20.00;97.90;;;;;;5010921;28;20041;-68
2021/08/07 08:58:07;;;;;;;5.85;1.08;;;19.80;96.80;;;;;;5010146;28;20734;-68
2021/08/07 09:00:33;;;;;;;6.95;1.00;;;19.80;97.40;;;;;;5010003;28;20502;-68
2021/08/07 09:02:58;;;;;;;6.88;0.90;;;19.90;98.30;;;;;;5007671;28;20214;-67
2021/08/07 09:05:24;;;;;;;4.90;0.77;;;19.90;98.40;;;;;;5014158;28;20042;-68
2021/08/07 09:07:49;;;;;;;;;;;19.60;97.20;;;;;;5023318;28;20045;-68
2021/08/07 09:10:16;;;;;;;4.38;1.08;;;19.40;97.50;;;;;;5028225;28;19932;-68
2021/08/07 09:12:55;;;;;;;5.82;1.20;;;19.40;98.90;;;;;;5027889;28;20065;-68
2021/08/07 09:15:37;;;;;;;2.55;0.82;;;19.30;97.60;;;;;;5026969;28;20045;-68
2021/08/07 09:18:12;;;;;;;5.05;1.20;;;19.20;97.70;;;;;;5027996;28;20098;-68
2021/08/07 09:20:49;;;;;;;4.90;1.40;;;19.10;98.10;;;;;;5028279;28;20041;-68
2021/08/07 09:23:27;;;;;;;5.45;1.23;;;19.10;99.10;;;;;;5028361;28;20520;-68
2021/08/07 09:25:52;;;;;;;5.68;1.35;;;18.90;97.80;;;;;;5000470;28;20038;-68
2021/08/07 09:28:18;;;;;;;;;;;18.80;98.80;;;;;;5015690;28;20422;-67
2021/08/07 09:30:44;;;;;;;6.60;1.10;;;18.60;97.90;;;;;;5007233;28;20016;-68
2021/08/07 09:33:12;;;;;;;5.13;1.35;;;18.60;99.10;;;;;;5007207;28;20091;-68
2021/08/07 09:35:44;;;;;;;7.25;1.42;;;18.60;99.10;;;;;;5005505;28;20824;-68
2021/08/07 09:38:19;;;;;;;10.43;1.50;;;18.60;98.30;;;;;;5006552;28;20046;-67
2021/08/07 09:41:00;;;;;;;6.13;2.05;;;18.50;98.40;;;;;;5007129;28;20049;-68
2021/08/07 09:43:34;;;;;;;11.10;1.70;;;18.50;98.90;;;;;;5007472;28;20049;-70
2021/08/07 09:46:24;;;;;;;7.28;1.27;;;18.50;99.10;;;;;;5007920;28;20033;-68
2021/08/07 09:48:53;;;;;;;4.53;0.85;;;18.50;99.10;;;;;;4999024;28;20056;-68
2021/08/07 09:51:20;;;;;;;6.10;1.23;;;18.40;98.60;;;;;;5007058;28;20049;-67
2021/08/07 09:53:59;;;;;;;3.95;0.98;;;18.30;99.30;;;;;;5007099;28;20559;-68
2021/08/07 09:56:24;;;;;;;6.85;1.20;;;18.30;99.50;;;;;;5009512;28;20441;-69
2021/08/07 09:59:02;;;;;;;;;;;18.30;99.30;;;;;;4989734;28;20042;-68
2021/08/07 10:01:28;;;;;;;4.72;1.23;;;18.20;99.90;;;;;;5008973;28;20015;-69
2021/08/07 10:04:10;;;;;;;4.78;0.90;;;18.60;99.90;;;;;;5007433;28;20057;-68
2021/08/07 10:06:37;;;;;;;4.47;1.33;;;18.60;98.80;;;;;;5005922;28;20049;-68
2021/08/07 10:09:04;;;;;;;10.32;4.80;;;18.80;99.00;;;;;;5007503;28;20080;-68
2021/08/07 10:11:30;;;;;;;3.55;1.17;;;18.80;99.70;;;;;;5006673;28;20093;-68
2021/08/07 10:13:57;;;;;;;5.55;1.38;;;18.70;98.50;;;;;;5006671;28;20087;-68
2021/08/07 10:16:23;;;;;;;7.05;2.55;;;18.60;99.00;;;;;;5005872;28;20057;-68
2021/08/07 10:18:50;;;;;;;11.15;2.30;;;18.40;98.70;;;;;;5006488;28;20049;-68
2021/08/07 10:21:17;;;;;;;3.85;1.10;;;18.30;99.70;;;;;;5024465;28;20075;-68
2021/08/07 10:23:43;;;;;;;5.55;1.20;;;18.30;99.30;;;;;;5025864;28;20489;-68
2021/08/07 10:26:12;;;;;;;3.22;1.35;;;18.30;99.90;;;;;;5011870;28;20356;-68
2021/08/07 10:28:48;;;;;;;3.15;1.02;;;18.30;99.90;;;;;;5006482;28;20057;-69
2021/08/07 10:31:14;;;;;;;5.40;1.20;;;18.40;99.90;;;;;;5005834;28;20046;-69
2021/08/07 10:33:46;;;;;;;3.25;1.08;;;18.40;99.70;;;;;;5005167;28;20041;-69
2021/08/07 10:36:13;;;;;;;6.72;1.40;;;18.40;99.50;;;;;;5005829;28;20402;-69
2021/08/07 10:38:40;;;;;;;6.70;1.15;;;18.40;99.50;;;;;;5006234;28;20076;-69
2021/08/07 10:41:07;;;;;;;6.00;1.60;;;18.30;99.30;;;;;;5006014;28;20045;-69
2021/08/07 10:43:36;;;;;;;8.63;1.30;;;18.30;98.80;;;;;;5013964;28;20049;-68
2021/08/07 10:46:07;;;;;;;4.88;1.13;;;18.30;99.30;;;;;;5022594;28;20033;-69
2021/08/07 10:48:38;;;;;;;5.68;1.17;;;18.30;99.40;;;;;;5025062;28;20095;-68
2021/08/07 10:51:18;;;;;;;4.25;0.95;;;18.30;99.90;;;;;;5024298;28;20053;-68
2021/08/07 10:53:46;;;;;;;4.82;1.20;;;18.30;99.00;;;;;;5024665;28;20449;-68
2021/08/07 10:56:31;;;;;;;4.20;1.20;;;18.20;99.30;;;;;;5009093;28;20037;-68
2021/08/07 10:58:59;;;;;;;3.35;1.30;;;18.20;99.40;;;;;;5003306;28;20104;-68
2021/08/07 11:01:25;;;;;;;4.22;0.95;;;18.10;99.70;;;;;;5006734;28;20045;-68
2021/08/07 11:04:02;;;;;;;;;;;18.10;99.90;;;;;;5006926;28;20064;-68
2021/08/07 11:06:52;;;;;;;6.18;2.83;;;18.10;99.90;;;;;;5006417;28;20218;-68
2021/08/07 11:09:22;;;;;;;4.20;1.40;;;18.20;99.90;;;;;;5006010;28;20054;-68
2021/08/07 11:11:50;;;;;;;5.18;0.90;;;18.40;99.90;;;;;;5006058;28;20444;-68
2021/08/07 11:14:21;;;;;;;6.45;1.45;;;18.40;99.90;;;;;;5006412;28;20583;-69
2021/08/07 11:17:02;;;;;;;5.20;1.25;;;18.50;99.80;;;;;;5006150;28;20113;-68
2021/08/07 11:19:48;;;;;;;10.98;4.70;;;18.70;99.90;;;;;;5009092;28;20429;-68
2021/08/07 11:22:37;;;;;;;6.57;2.17;;;18.70;99.90;;;;;;5025877;28;20052;-69
2021/08/07 11:25:18;;;;;;;4.45;1.70;;;18.80;99.30;;;;;;5013657;28;20038;-68
2021/08/07 11:27:52;;;;;;;4.72;1.52;;;18.80;99.60;;;;;;5017477;28;20045;-68
2021/08/07 11:30:18;;;;;;;4.18;1.38;;;18.80;99.90;;;;;;5025406;28;20133;-68
2021/08/07 11:32:55;;;;;;;;;;;18.70;99.10;;;;;;5026277;28;20452;-68
2021/08/07 11:35:43;;;;;;;7.20;1.15;;;18.80;98.60;;;;;;5025022;28;19920;-68
2021/08/07 11:38:14;;;;;;;4.78;1.23;;;18.90;98.90;;;;;;5012750;28;20723;-68
2021/08/07 11:40:56;;;;;;;5.25;1.10;;;19.00;98.30;;;;;;5025031;28;20053;-68
2021/08/07 11:43:32;;;;;;;2.70;1.23;;;19.00;98.50;;;;;;5011258;28;20062;-68
2021/08/07 11:45:59;;;;;;;3.53;1.38;;;19.30;99.20;;;;;;5003621;28;20440;-68
2021/08/07 11:48:33;;;;;;;3.83;1.20;;;19.40;98.30;;;;;;5005565;28;20054;-68
2021/08/07 11:51:02;;;;;;;6.80;1.65;;;19.40;96.20;;;;;;5005390;28;20056;-69
2021/08/07 11:53:28;;;;;;;4.25;1.13;;;19.60;97.60;;;;;;5003907;28;20124;-68
2021/08/07 11:56:06;;;;;;;7.88;1.17;;;19.50;95.60;;;;;;5006572;28;20041;-68
2021/08/07 11:58:41;;;;;;;5.38;1.13;;;19.40;96.60;;;;;;5021136;28;20041;-68
2021/08/07 12:01:07;;;;;;;5.72;1.20;;;19.20;96.30;;;;;;5008487;28;20057;-67
2021/08/07 12:03:46;;;;;;;;;;;19.10;96.20;;;;;;5005919;28;20450;-68
2021/08/07 12:06:15;;;;;;;3.85;1.27;;;19.10;96.50;;;;;;5007170;28;19917;-68
2021/08/07 12:08:41;;;;;;;5.60;0.98;;;19.00;96.50;;;;;;5009233;28;20048;-69
2021/08/07 12:11:08;;;;;;;;;;;19.00;97.10;;;;;;5009346;28;20042;-67
2021/08/07 12:13:37;;;;;;;6.85;1.65;;;18.80;96.80;;;;;;5008730;28;20057;-69
2021/08/07 12:16:26;;;;;;;2.38;0.88;;;18.80;97.50;;;;;;5008524;28;20065;-69
2021/08/07 12:18:54;;;;;;;6.80;2.05;;;18.70;97.50;;;;;;5008091;28;20049;-68
2021/08/07 12:21:23;;;;;;;8.18;4.25;;;18.70;98.10;;;;;;5027698;28;20041;-68
2021/08/07 12:23:54;;;;;;;5.10;1.50;;;18.60;97.40;;;;;;5028658;28;20041;-68
2021/08/07 12:26:21;;;;;;;5.90;1.38;;;18.70;98.00;;;;;;5013505;28;20088;-68
2021/08/07 12:28:54;;;;;;;3.13;1.30;;;18.80;97.30;;;;;;5023721;28;20155;-68
2021/08/07 12:31:19;;;;;;;4.47;1.02;;;18.80;97.20;;;;;;5027774;28;20123;-68
2021/08/07 12:33:45;;;;;;;;;;;18.90;97.20;;;;;;5027827;28;20076;-68
2021/08/07 12:36:22;;;;;;;3.33;1.40;;;19.00;98.00;;;;;;5027608;28;19921;-68
2021/08/07 12:38:49;;;;;;;2.42;1.05;;;19.10;97.90;;;;;;5027747;28;20160;-68
2021/08/07 12:41:19;;;;;;;9.18;1.40;;;19.00;96.90;;;;;;5028425;28;20045;-68
2021/08/07 12:43:46;;;;;;;4.18;1.30;;;19.00;97.10;;;;;;5010346;28;20038;-69
2021/08/07 12:46:15;;;;;;;6.38;1.27;;;19.00;97.50;;;;;;5007303;28;20041;-69
2021/08/07 12:48:59;;;;;;;3.42;1.25;;;19.10;96.60;;;;;;5008222;28;20049;-69
2021/08/07 12:51:31;;;;;;;4.15;1.52;;;19.10;96.90;;;;;;5009126;28;20085;-69
2021/08/07 12:53:59;;;;;;;3.50;1.42;;;19.30;97.80;;;;;;5008641;28;20061;-68
2021/08/07 12:56:27;;;;;;;4.93;2.20;;;19.40;97.20;;;;;;5010377;28;20045;-69
2021/08/07 12:59:08;;;;;;;7.63;3.28;;;19.20;96.40;;;;;;5005989;28;20046;-69
2021/08/07 13:01:36;;;;;;;6.45;1.65;;;19.30;96.80;;;;;;5008052;28;20046;-69
2021/08/07 13:04:04;;;;;;;18.27;7.45;;;19.50;97.40;;;;;;5008488;28;20197;-69
2021/08/07 13:06:33;;;;;;;5.68;1.80;;;19.60;97.30;;;;;;5008000;28;20139;-69
2021/08/07 13:09:28;;;;;;;5.63;1.80;;;19.60;95.60;;;;;;5007517;28;20046;-68
2021/08/07 13:12:14;;;;;;;4.88;1.10;;;19.60;95.70;;;;;;5008065;28;20042;-69
2021/08/07 13:15:06;;;;;;;4.68;1.17;;;19.60;96.50;;;;;;5007438;28;20401;-68